sensor_id;sensor_type;location;lat;lon;timestamp;P1;durP1;ratioP1;P2;durP2;ratioP2
68989;SDS011;56046;47.270;11.368;2023-07-29T00:01:38;5.50;;;2.27;;
68989;SDS011;56046;47.270;11.368;2023-07-29T00:04:05;4.75;;;2.28;;
68989;SDS011;56046;47.270;11.368;2023-07-29T00:06:31;4.70;;;2.47;;
68989;SDS011;56046;47.270;11.368;2023-07-29T00:08:56;5.07;;;2.40;;
68989;SDS011;56046;47.270;11.368;2023-07-29T00:11:21;7.47;;;3.33;;
68989;SDS011;56046;47.270;11.368;2023-07-29T00:13:46;7.47;;;3.87;;
68989;SDS011;56046;47.270;11.368;2023-07-29T00:16:12;6.10;;;3.10;;
68989;SDS011;56046;47.270;11.368;2023-07-29T00:18:37;5.30;;;2.50;;
68989;SDS011;56046;47.270;11.368;2023-07-29T00:21:03;5.30;;;2.17;;
68989;SDS011;56046;47.270;11.368;2023-07-29T00:23:29;4.23;;;2.30;;
68989;SDS011;56046;47.270;11.368;2023-07-29T00:25:54;6.47;;;2.10;;
68989;SDS011;56046;47.270;11.368;2023-07-29T00:28:19;5.87;;;2.63;;
68989;SDS011;56046;47.270;11.368;2023-07-29T00:30:44;5.43;;;2.60;;
68989;SDS011;56046;47.270;11.368;2023-07-29T00:33:09;6.20;;;3.03;;
68989;SDS011;56046;47.270;11.368;2023-07-29T00:35:35;6.13;;;3.07;;
68989;SDS011;56046;47.270;11.368;2023-07-29T00:38:00;8.00;;;3.80;;
68989;SDS011;56046;47.270;11.368;2023-07-29T00:40:25;7.13;;;3.60;;
68989;SDS011;56046;47.270;11.368;2023-07-29T00:42:52;8.05;;;4.10;;
68989;SDS011;56046;47.270;11.368;2023-07-29T00:45:18;7.70;;;4.30;;
68989;SDS011;56046;47.270;11.368;2023-07-29T00:47:43;8.90;;;4.17;;
68989;SDS011;56046;47.270;11.368;2023-07-29T00:50:12;7.70;;;4.27;;
68989;SDS011;56046;47.270;11.368;2023-07-29T00:52:37;8.27;;;4.40;;
68989;SDS011;56046;47.270;11.368;2023-07-29T00:55:03;12.10;;;5.23;;
68989;SDS011;56046;47.270;11.368;2023-07-29T00:57:29;10.82;;;4.50;;
68989;SDS011;56046;47.270;11.368;2023-07-29T00:59:55;8.63;;;3.60;;
68989;SDS011;56046;47.270;11.368;2023-07-29T01:02:20;7.23;;;3.50;;
68989;SDS011;56046;47.270;11.368;2023-07-29T01:04:46;7.72;;;3.20;;
68989;SDS011;56046;47.270;11.368;2023-07-29T01:15:14;7.35;;;3.25;;
68989;SDS011;56046;47.270;11.368;2023-07-29T01:17:41;6.10;;;2.55;;
68989;SDS011;56046;47.270;11.368;2023-07-29T01:20:08;5.03;;;2.50;;
68989;SDS011;56046;47.270;11.368;2023-07-29T01:22:34;6.55;;;2.42;;
68989;SDS011;56046;47.270;11.368;2023-07-29T01:25:00;4.30;;;1.90;;
68989;SDS011;56046;47.270;11.368;2023-07-29T01:27:25;4.77;;;2.10;;
68989;SDS011;56046;47.270;11.368;2023-07-29T01:29:51;4.00;;;1.85;;
68989;SDS011;56046;47.270;11.368;2023-07-29T01:32:19;7.47;;;2.27;;
68989;SDS011;56046;47.270;11.368;2023-07-29T01:34:45;4.68;;;2.13;;
68989;SDS011;56046;47.270;11.368;2023-07-29T01:37:13;5.20;;;2.15;;
68989;SDS011;56046;47.270;11.368;2023-07-29T01:39:40;5.45;;;2.60;;
68989;SDS011;56046;47.270;11.368;2023-07-29T01:42:06;6.13;;;3.37;;
68989;SDS011;56046;47.270;11.368;2023-07-29T01:44:31;8.57;;;3.50;;
68989;SDS011;56046;47.270;11.368;2023-07-29T01:46:57;8.87;;;3.77;;
68989;SDS011;56046;47.270;11.368;2023-07-29T01:49:22;15.90;;;4.30;;
68989;SDS011;56046;47.270;11.368;2023-07-29T01:51:47;116.07;;;8.33;;
68989;SDS011;56046;47.270;11.368;2023-07-29T01:54:12;141.17;;;7.90;;
68989;SDS011;56046;47.270;11.368;2023-07-29T01:56:38;29.00;;;5.40;;
68989;SDS011;56046;47.270;11.368;2023-07-29T01:59:04;7.88;;;4.55;;
68989;SDS011;56046;47.270;11.368;2023-07-29T02:01:29;9.40;;;3.77;;
68989;SDS011;56046;47.270;11.368;2023-07-29T02:03:56;7.15;;;3.75;;
68989;SDS011;56046;47.270;11.368;2023-07-29T02:06:21;7.13;;;2.97;;
68989;SDS011;56046;47.270;11.368;2023-07-29T02:08:46;7.10;;;3.10;;
68989;SDS011;56046;47.270;11.368;2023-07-29T02:11:12;6.47;;;3.70;;
68989;SDS011;56046;47.270;11.368;2023-07-29T02:13:37;6.87;;;3.40;;
68989;SDS011;56046;47.270;11.368;2023-07-29T02:16:02;5.40;;;3.10;;
68989;SDS011;56046;47.270;11.368;2023-07-29T02:18:28;8.47;;;3.30;;
68989;SDS011;56046;47.270;11.368;2023-07-29T02:20:53;6.70;;;3.37;;
68989;SDS011;56046;47.270;11.368;2023-07-29T02:23:18;4.67;;;2.73;;
68989;SDS011;56046;47.270;11.368;2023-07-29T02:25:44;5.00;;;2.50;;
68989;SDS011;56046;47.270;11.368;2023-07-29T02:28:09;6.93;;;2.27;;
68989;SDS011;56046;47.270;11.368;2023-07-29T02:30:34;4.30;;;1.70;;
68989;SDS011;56046;47.270;11.368;2023-07-29T02:32:59;6.37;;;2.50;;
68989;SDS011;56046;47.270;11.368;2023-07-29T02:35:26;5.95;;;2.83;;
68989;SDS011;56046;47.270;11.368;2023-07-29T02:37:51;6.83;;;2.93;;
68989;SDS011;56046;47.270;11.368;2023-07-29T02:40:17;5.87;;;2.80;;
68989;SDS011;56046;47.270;11.368;2023-07-29T02:42:42;6.03;;;2.67;;
68989;SDS011;56046;47.270;11.368;2023-07-29T02:45:07;5.67;;;2.73;;
68989;SDS011;56046;47.270;11.368;2023-07-29T02:47:35;5.85;;;2.92;;
68989;SDS011;56046;47.270;11.368;2023-07-29T02:50:00;7.90;;;3.03;;
68989;SDS011;56046;47.270;11.368;2023-07-29T02:52:25;6.20;;;3.17;;
68989;SDS011;56046;47.270;11.368;2023-07-29T02:54:50;8.77;;;3.53;;
68989;SDS011;56046;47.270;11.368;2023-07-29T02:57:15;7.40;;;3.50;;
68989;SDS011;56046;47.270;11.368;2023-07-29T02:59:42;6.93;;;3.63;;
68989;SDS011;56046;47.270;11.368;2023-07-29T03:02:07;11.43;;;3.43;;
68989;SDS011;56046;47.270;11.368;2023-07-29T03:04:32;7.57;;;3.30;;
68989;SDS011;56046;47.270;11.368;2023-07-29T03:06:58;8.90;;;3.43;;
68989;SDS011;56046;47.270;11.368;2023-07-29T03:09:24;7.97;;;3.63;;
68989;SDS011;56046;47.270;11.368;2023-07-29T03:11:49;7.03;;;3.57;;
68989;SDS011;56046;47.270;11.368;2023-07-29T03:14:17;6.05;;;3.35;;
68989;SDS011;56046;47.270;11.368;2023-07-29T03:16:42;6.45;;;3.25;;
68989;SDS011;56046;47.270;11.368;2023-07-29T03:19:08;6.17;;;3.17;;
68989;SDS011;56046;47.270;11.368;2023-07-29T03:21:33;6.50;;;2.97;;
68989;SDS011;56046;47.270;11.368;2023-07-29T03:23:58;6.80;;;3.23;;
68989;SDS011;56046;47.270;11.368;2023-07-29T03:26:23;5.60;;;2.83;;
68989;SDS011;56046;47.270;11.368;2023-07-29T03:28:49;6.50;;;3.17;;
68989;SDS011;56046;47.270;11.368;2023-07-29T03:31:14;7.50;;;3.23;;
68989;SDS011;56046;47.270;11.368;2023-07-29T03:33:39;5.40;;;2.90;;
68989;SDS011;56046;47.270;11.368;2023-07-29T03:36:04;8.00;;;3.50;;
68989;SDS011;56046;47.270;11.368;2023-07-29T03:38:30;5.72;;;3.28;;
68989;SDS011;56046;47.270;11.368;2023-07-29T03:40:55;8.17;;;3.50;;
68989;SDS011;56046;47.270;11.368;2023-07-29T03:43:21;7.10;;;2.90;;
68989;SDS011;56046;47.270;11.368;2023-07-29T03:45:46;6.00;;;2.73;;
68989;SDS011;56046;47.270;11.368;2023-07-29T03:48:11;5.63;;;3.03;;
68989;SDS011;56046;47.270;11.368;2023-07-29T03:50:36;8.33;;;2.93;;
68989;SDS011;56046;47.270;11.368;2023-07-29T03:53:02;6.47;;;2.92;;
68989;SDS011;56046;47.270;11.368;2023-07-29T03:55:28;5.20;;;2.47;;
68989;SDS011;56046;47.270;11.368;2023-07-29T03:57:55;5.72;;;2.85;;
68989;SDS011;56046;47.270;11.368;2023-07-29T04:00:20;7.10;;;3.17;;
68989;SDS011;56046;47.270;11.368;2023-07-29T04:02:45;5.70;;;3.00;;
68989;SDS011;56046;47.270;11.368;2023-07-29T04:05:11;6.03;;;2.90;;
68989;SDS011;56046;47.270;11.368;2023-07-29T04:07:36;6.10;;;3.20;;
68989;SDS011;56046;47.270;11.368;2023-07-29T04:10:02;7.90;;;3.00;;
68989;SDS011;56046;47.270;11.368;2023-07-29T04:12:27;6.20;;;3.20;;
68989;SDS011;56046;47.270;11.368;2023-07-29T04:14:52;6.53;;;2.90;;
68989;SDS011;56046;47.270;11.368;2023-07-29T04:17:18;7.17;;;3.40;;
68989;SDS011;56046;47.270;11.368;2023-07-29T04:19:43;7.37;;;3.23;;
68989;SDS011;56046;47.270;11.368;2023-07-29T04:22:08;5.97;;;2.83;;
68989;SDS011;56046;47.270;11.368;2023-07-29T04:24:33;4.50;;;2.43;;
68989;SDS011;56046;47.270;11.368;2023-07-29T04:26:59;5.80;;;2.57;;
68989;SDS011;56046;47.270;11.368;2023-07-29T04:29:24;5.30;;;3.13;;
68989;SDS011;56046;47.270;11.368;2023-07-29T04:31:50;9.57;;;3.90;;
68989;SDS011;56046;47.270;11.368;2023-07-29T04:34:15;5.93;;;2.80;;
68989;SDS011;56046;47.270;11.368;2023-07-29T04:36:43;5.00;;;2.30;;
68989;SDS011;56046;47.270;11.368;2023-07-29T04:39:09;5.33;;;2.90;;
68989;SDS011;56046;47.270;11.368;2023-07-29T04:41:34;4.80;;;2.57;;
68989;SDS011;56046;47.270;11.368;2023-07-29T04:43:59;5.27;;;2.73;;
68989;SDS011;56046;47.270;11.368;2023-07-29T04:46:24;4.80;;;2.20;;
68989;SDS011;56046;47.270;11.368;2023-07-29T04:48:50;5.40;;;2.40;;
68989;SDS011;56046;47.270;11.368;2023-07-29T04:51:15;5.73;;;2.30;;
68989;SDS011;56046;47.270;11.368;2023-07-29T04:53:40;4.83;;;2.47;;
68989;SDS011;56046;47.270;11.368;2023-07-29T04:56:05;4.83;;;2.60;;
68989;SDS011;56046;47.270;11.368;2023-07-29T04:58:31;5.00;;;2.30;;
68989;SDS011;56046;47.270;11.368;2023-07-29T05:00:59;5.13;;;2.50;;
68989;SDS011;56046;47.270;11.368;2023-07-29T05:03:24;4.83;;;2.33;;
68989;SDS011;56046;47.270;11.368;2023-07-29T05:05:50;4.97;;;2.53;;
68989;SDS011;56046;47.270;11.368;2023-07-29T05:08:16;5.57;;;2.78;;
68989;SDS011;56046;47.270;11.368;2023-07-29T05:10:41;5.47;;;2.80;;
68989;SDS011;56046;47.270;11.368;2023-07-29T05:13:07;5.30;;;2.90;;
68989;SDS011;56046;47.270;11.368;2023-07-29T05:15:32;4.50;;;2.17;;
68989;SDS011;56046;47.270;11.368;2023-07-29T05:17:57;3.73;;;2.23;;
68989;SDS011;56046;47.270;11.368;2023-07-29T05:20:22;4.37;;;2.10;;
68989;SDS011;56046;47.270;11.368;2023-07-29T05:22:48;5.60;;;2.27;;
68989;SDS011;56046;47.270;11.368;2023-07-29T05:25:13;5.30;;;2.37;;
68989;SDS011;56046;47.270;11.368;2023-07-29T05:27:38;7.23;;;2.47;;
68989;SDS011;56046;47.270;11.368;2023-07-29T05:30:03;5.73;;;2.60;;
68989;SDS011;56046;47.270;11.368;2023-07-29T05:32:29;6.22;;;2.70;;
68989;SDS011;56046;47.270;11.368;2023-07-29T05:34:54;4.93;;;2.80;;
68989;SDS011;56046;47.270;11.368;2023-07-29T05:37:20;4.47;;;2.37;;
68989;SDS011;56046;47.270;11.368;2023-07-29T05:39:45;4.77;;;2.70;;
68989;SDS011;56046;47.270;11.368;2023-07-29T05:42:10;5.87;;;2.43;;
68989;SDS011;56046;47.270;11.368;2023-07-29T05:44:35;4.67;;;2.60;;
68989;SDS011;56046;47.270;11.368;2023-07-29T05:47:01;4.73;;;2.40;;
68989;SDS011;56046;47.270;11.368;2023-07-29T05:49:26;4.97;;;2.53;;
68989;SDS011;56046;47.270;11.368;2023-07-29T05:51:51;4.37;;;2.13;;
68989;SDS011;56046;47.270;11.368;2023-07-29T05:54:18;4.65;;;2.40;;
68989;SDS011;56046;47.270;11.368;2023-07-29T05:56:43;4.03;;;2.00;;
68989;SDS011;56046;47.270;11.368;2023-07-29T05:59:08;4.67;;;2.13;;
68989;SDS011;56046;47.270;11.368;2023-07-29T06:01:33;3.73;;;1.87;;
68989;SDS011;56046;47.270;11.368;2023-07-29T06:03:59;4.15;;;2.22;;
68989;SDS011;56046;47.270;11.368;2023-07-29T06:06:25;4.63;;;2.80;;
68989;SDS011;56046;47.270;11.368;2023-07-29T06:08:50;4.63;;;2.20;;
68989;SDS011;56046;47.270;11.368;2023-07-29T06:11:15;4.47;;;2.33;;
68989;SDS011;56046;47.270;11.368;2023-07-29T06:13:41;4.43;;;2.33;;
68989;SDS011;56046;47.270;11.368;2023-07-29T06:16:06;5.47;;;2.57;;
68989;SDS011;56046;47.270;11.368;2023-07-29T06:18:32;5.07;;;2.13;;
68989;SDS011;56046;47.270;11.368;2023-07-29T06:20:57;6.17;;;2.73;;
68989;SDS011;56046;47.270;11.368;2023-07-29T06:23:22;5.07;;;2.60;;
68989;SDS011;56046;47.270;11.368;2023-07-29T06:25:47;8.20;;;3.03;;
68989;SDS011;56046;47.270;11.368;2023-07-29T06:28:13;10.77;;;3.40;;
68989;SDS011;56046;47.270;11.368;2023-07-29T06:30:38;8.87;;;3.13;;
68989;SDS011;56046;47.270;11.368;2023-07-29T06:33:03;9.70;;;2.80;;
68989;SDS011;56046;47.270;11.368;2023-07-29T06:35:29;5.78;;;2.80;;
68989;SDS011;56046;47.270;11.368;2023-07-29T06:37:54;5.80;;;2.60;;
68989;SDS011;56046;47.270;11.368;2023-07-29T06:40:19;5.17;;;2.97;;
68989;SDS011;56046;47.270;11.368;2023-07-29T06:42:45;5.67;;;2.70;;
68989;SDS011;56046;47.270;11.368;2023-07-29T06:45:10;5.53;;;2.70;;
68989;SDS011;56046;47.270;11.368;2023-07-29T06:47:35;5.10;;;2.70;;
68989;SDS011;56046;47.270;11.368;2023-07-29T06:50:00;7.33;;;3.27;;
68989;SDS011;56046;47.270;11.368;2023-07-29T06:52:26;5.97;;;2.40;;
68989;SDS011;56046;47.270;11.368;2023-07-29T06:54:51;5.18;;;2.80;;
68989;SDS011;56046;47.270;11.368;2023-07-29T06:57:16;5.50;;;3.30;;
68989;SDS011;56046;47.270;11.368;2023-07-29T06:59:42;4.90;;;2.30;;
68989;SDS011;56046;47.270;11.368;2023-07-29T07:02:07;5.00;;;2.67;;
68989;SDS011;56046;47.270;11.368;2023-07-29T07:04:32;4.53;;;2.70;;
68989;SDS011;56046;47.270;11.368;2023-07-29T07:06:58;4.63;;;2.37;;
68989;SDS011;56046;47.270;11.368;2023-07-29T07:09:23;4.65;;;2.85;;
68989;SDS011;56046;47.270;11.368;2023-07-29T07:11:48;6.03;;;2.73;;
68989;SDS011;56046;47.270;11.368;2023-07-29T07:14:14;7.10;;;2.97;;
68989;SDS011;56046;47.270;11.368;2023-07-29T07:16:39;5.70;;;3.03;;
68989;SDS011;56046;47.270;11.368;2023-07-29T07:19:04;4.67;;;3.13;;
68989;SDS011;56046;47.270;11.368;2023-07-29T07:21:29;5.07;;;2.90;;
68989;SDS011;56046;47.270;11.368;2023-07-29T07:23:55;6.03;;;3.00;;
68989;SDS011;56046;47.270;11.368;2023-07-29T07:26:20;5.90;;;3.00;;
68989;SDS011;56046;47.270;11.368;2023-07-29T07:28:45;7.93;;;3.10;;
68989;SDS011;56046;47.270;11.368;2023-07-29T07:31:11;5.73;;;3.17;;
68989;SDS011;56046;47.270;11.368;2023-07-29T07:33:36;6.93;;;3.30;;
68989;SDS011;56046;47.270;11.368;2023-07-29T07:36:01;6.80;;;3.30;;
68989;SDS011;56046;47.270;11.368;2023-07-29T07:38:26;5.23;;;2.73;;
68989;SDS011;56046;47.270;11.368;2023-07-29T07:40:55;4.50;;;2.80;;
68989;SDS011;56046;47.270;11.368;2023-07-29T07:43:21;6.22;;;3.00;;
68989;SDS011;56046;47.270;11.368;2023-07-29T07:45:46;5.60;;;3.00;;
68989;SDS011;56046;47.270;11.368;2023-07-29T07:48:11;5.47;;;2.87;;
68989;SDS011;56046;47.270;11.368;2023-07-29T07:50:38;5.20;;;2.83;;
68989;SDS011;56046;47.270;11.368;2023-07-29T07:53:03;5.30;;;3.10;;
68989;SDS011;56046;47.270;11.368;2023-07-29T07:55:28;4.67;;;2.37;;
68989;SDS011;56046;47.270;11.368;2023-07-29T07:57:53;4.60;;;2.57;;
68989;SDS011;56046;47.270;11.368;2023-07-29T08:00:20;5.32;;;2.80;;
68989;SDS011;56046;47.270;11.368;2023-07-29T08:02:46;5.85;;;2.83;;
68989;SDS011;56046;47.270;11.368;2023-07-29T08:05:11;4.73;;;2.57;;
68989;SDS011;56046;47.270;11.368;2023-07-29T08:07:36;4.03;;;2.53;;
68989;SDS011;56046;47.270;11.368;2023-07-29T08:10:02;4.50;;;2.93;;
68989;SDS011;56046;47.270;11.368;2023-07-29T08:12:27;4.80;;;2.40;;
68989;SDS011;56046;47.270;11.368;2023-07-29T08:14:52;6.03;;;2.50;;
68989;SDS011;56046;47.270;11.368;2023-07-29T08:17:17;7.53;;;2.27;;
68989;SDS011;56046;47.270;11.368;2023-07-29T08:19:43;6.23;;;2.67;;
68989;SDS011;56046;47.270;11.368;2023-07-29T08:22:08;5.35;;;1.77;;
68989;SDS011;56046;47.270;11.368;2023-07-29T08:24:34;4.20;;;2.10;;
68989;SDS011;56046;47.270;11.368;2023-07-29T08:26:59;4.67;;;2.60;;
68989;SDS011;56046;47.270;11.368;2023-07-29T08:29:24;4.33;;;2.27;;
68989;SDS011;56046;47.270;11.368;2023-07-29T08:31:50;3.70;;;2.10;;
68989;SDS011;56046;47.270;11.368;2023-07-29T08:34:16;3.40;;;2.00;;
68989;SDS011;56046;47.270;11.368;2023-07-29T08:36:41;4.10;;;1.97;;
68989;SDS011;56046;47.270;11.368;2023-07-29T08:39:07;4.23;;;2.30;;
68989;SDS011;56046;47.270;11.368;2023-07-29T08:44:30;4.20;;;2.40;;
68989;SDS011;56046;47.270;11.368;2023-07-29T08:46:59;5.78;;;2.67;;
68989;SDS011;56046;47.270;11.368;2023-07-29T08:49:24;4.00;;;2.50;;
68989;SDS011;56046;47.270;11.368;2023-07-29T08:51:51;5.35;;;2.05;;
68989;SDS011;56046;47.270;11.368;2023-07-29T08:54:18;4.18;;;2.55;;
68989;SDS011;56046;47.270;11.368;2023-07-29T08:56:43;4.07;;;2.77;;
68989;SDS011;56046;47.270;11.368;2023-07-29T08:59:09;4.43;;;2.78;;
68989;SDS011;56046;47.270;11.368;2023-07-29T09:01:36;4.60;;;2.80;;
68989;SDS011;56046;47.270;11.368;2023-07-29T09:04:01;5.13;;;2.40;;
68989;SDS011;56046;47.270;11.368;2023-07-29T09:06:26;4.90;;;2.47;;
68989;SDS011;56046;47.270;11.368;2023-07-29T09:08:53;4.50;;;2.43;;
68989;SDS011;56046;47.270;11.368;2023-07-29T09:11:19;4.13;;;2.53;;
68989;SDS011;56046;47.270;11.368;2023-07-29T09:13:45;4.45;;;2.50;;
68989;SDS011;56046;47.270;11.368;2023-07-29T09:16:11;4.53;;;2.90;;
68989;SDS011;56046;47.270;11.368;2023-07-29T09:18:36;4.17;;;2.70;;
68989;SDS011;56046;47.270;11.368;2023-07-29T09:21:01;4.03;;;2.27;;
68989;SDS011;56046;47.270;11.368;2023-07-29T09:23:27;4.70;;;2.23;;
68989;SDS011;56046;47.270;11.368;2023-07-29T09:26:00;4.63;;;2.03;;
68989;SDS011;56046;47.270;11.368;2023-07-29T09:28:25;5.00;;;2.40;;
68989;SDS011;56046;47.270;11.368;2023-07-29T09:30:52;3.67;;;2.23;;
68989;SDS011;56046;47.270;11.368;2023-07-29T09:33:18;4.22;;;2.42;;
68989;SDS011;56046;47.270;11.368;2023-07-29T09:35:43;4.70;;;2.70;;
68989;SDS011;56046;47.270;11.368;2023-07-29T09:38:09;4.00;;;2.60;;
68989;SDS011;56046;47.270;11.368;2023-07-29T09:40:39;3.83;;;2.40;;
68989;SDS011;56046;47.270;11.368;2023-07-29T09:43:06;3.60;;;1.90;;
68989;SDS011;56046;47.270;11.368;2023-07-29T09:45:32;4.30;;;2.53;;
68989;SDS011;56046;47.270;11.368;2023-07-29T09:47:58;4.50;;;2.58;;
68989;SDS011;56046;47.270;11.368;2023-07-29T09:50:24;3.27;;;2.13;;
68989;SDS011;56046;47.270;11.368;2023-07-29T09:52:50;3.63;;;2.25;;
68989;SDS011;56046;47.270;11.368;2023-07-29T09:55:19;5.47;;;2.00;;
68989;SDS011;56046;47.270;11.368;2023-07-29T09:57:44;4.03;;;2.50;;
68989;SDS011;56046;47.270;11.368;2023-07-29T10:00:13;6.45;;;3.60;;
68989;SDS011;56046;47.270;11.368;2023-07-29T10:02:39;4.33;;;2.33;;
68989;SDS011;56046;47.270;11.368;2023-07-29T10:05:05;4.72;;;2.38;;
68989;SDS011;56046;47.270;11.368;2023-07-29T10:07:30;5.70;;;2.50;;
68989;SDS011;56046;47.270;11.368;2023-07-29T10:09:56;3.50;;;2.07;;
68989;SDS011;56046;47.270;11.368;2023-07-29T10:12:22;2.97;;;1.60;;
68989;SDS011;56046;47.270;11.368;2023-07-29T10:14:48;4.33;;;1.80;;
68989;SDS011;56046;47.270;11.368;2023-07-29T10:17:15;4.70;;;2.33;;
68989;SDS011;56046;47.270;11.368;2023-07-29T10:19:40;5.40;;;2.10;;
68989;SDS011;56046;47.270;11.368;2023-07-29T10:22:08;3.78;;;2.03;;
68989;SDS011;56046;47.270;11.368;2023-07-29T10:24:33;3.85;;;2.30;;
68989;SDS011;56046;47.270;11.368;2023-07-29T10:27:00;3.97;;;2.07;;
68989;SDS011;56046;47.270;11.368;2023-07-29T10:29:28;4.10;;;2.30;;
68989;SDS011;56046;47.270;11.368;2023-07-29T10:31:55;3.42;;;1.70;;
68989;SDS011;56046;47.270;11.368;2023-07-29T10:34:22;4.83;;;2.10;;
68989;SDS011;56046;47.270;11.368;2023-07-29T10:36:48;4.28;;;2.60;;
68989;SDS011;56046;47.270;11.368;2023-07-29T10:39:13;3.70;;;1.73;;
68989;SDS011;56046;47.270;11.368;2023-07-29T10:42:00;5.03;;;2.57;;
68989;SDS011;56046;47.270;11.368;2023-07-29T10:47:16;4.33;;;2.50;;
68989;SDS011;56046;47.270;11.368;2023-07-29T10:49:42;4.43;;;2.58;;
68989;SDS011;56046;47.270;11.368;2023-07-29T10:52:07;4.60;;;2.50;;
68989;SDS011;56046;47.270;11.368;2023-07-29T10:54:45;3.77;;;2.10;;
68989;SDS011;56046;47.270;11.368;2023-07-29T10:57:14;3.72;;;2.45;;
68989;SDS011;56046;47.270;11.368;2023-07-29T10:59:53;3.63;;;2.10;;
68989;SDS011;56046;47.270;11.368;2023-07-29T11:02:20;3.27;;;2.30;;
68989;SDS011;56046;47.270;11.368;2023-07-29T11:04:51;4.13;;;2.13;;
68989;SDS011;56046;47.270;11.368;2023-07-29T11:14:51;3.53;;;1.80;;
68989;SDS011;56046;47.270;11.368;2023-07-29T11:17:16;4.07;;;2.10;;
68989;SDS011;56046;47.270;11.368;2023-07-29T11:19:42;5.10;;;2.33;;
68989;SDS011;56046;47.270;11.368;2023-07-29T11:22:08;4.45;;;2.35;;
68989;SDS011;56046;47.270;11.368;2023-07-29T11:24:34;5.28;;;2.53;;
68989;SDS011;56046;47.270;11.368;2023-07-29T11:26:59;4.47;;;2.47;;
68989;SDS011;56046;47.270;11.368;2023-07-29T11:29:25;4.27;;;2.20;;
68989;SDS011;56046;47.270;11.368;2023-07-29T11:31:50;5.10;;;2.50;;
68989;SDS011;56046;47.270;11.368;2023-07-29T11:34:16;3.90;;;2.43;;
68989;SDS011;56046;47.270;11.368;2023-07-29T11:36:45;5.20;;;2.50;;
68989;SDS011;56046;47.270;11.368;2023-07-29T11:39:10;4.53;;;2.60;;
68989;SDS011;56046;47.270;11.368;2023-07-29T11:41:36;3.45;;;2.25;;
68989;SDS011;56046;47.270;11.368;2023-07-29T11:44:02;3.77;;;2.63;;
68989;SDS011;56046;47.270;11.368;2023-07-29T11:46:27;4.67;;;2.60;;
68989;SDS011;56046;47.270;11.368;2023-07-29T11:48:53;3.33;;;1.80;;
68989;SDS011;56046;47.270;11.368;2023-07-29T11:51:19;5.38;;;2.65;;
68989;SDS011;56046;47.270;11.368;2023-07-29T11:53:44;4.13;;;2.00;;
68989;SDS011;56046;47.270;11.368;2023-07-29T11:56:10;3.90;;;2.20;;
68989;SDS011;56046;47.270;11.368;2023-07-29T11:58:36;4.85;;;2.67;;
68989;SDS011;56046;47.270;11.368;2023-07-29T12:01:02;4.50;;;2.50;;
68989;SDS011;56046;47.270;11.368;2023-07-29T12:03:28;6.00;;;2.73;;
68989;SDS011;56046;47.270;11.368;2023-07-29T12:05:54;3.40;;;1.85;;
68989;SDS011;56046;47.270;11.368;2023-07-29T12:08:19;4.87;;;2.83;;
68989;SDS011;56046;47.270;11.368;2023-07-29T12:10:44;4.37;;;2.00;;
68989;SDS011;56046;47.270;11.368;2023-07-29T12:13:10;4.03;;;2.40;;
68989;SDS011;56046;47.270;11.368;2023-07-29T12:15:37;4.20;;;2.23;;
68989;SDS011;56046;47.270;11.368;2023-07-29T12:18:02;4.20;;;2.80;;
68989;SDS011;56046;47.270;11.368;2023-07-29T12:20:29;3.97;;;2.60;;
68989;SDS011;56046;47.270;11.368;2023-07-29T12:22:55;4.28;;;2.20;;
68989;SDS011;56046;47.270;11.368;2023-07-29T12:25:20;4.93;;;1.90;;
68989;SDS011;56046;47.270;11.368;2023-07-29T12:27:46;5.10;;;2.10;;
68989;SDS011;56046;47.270;11.368;2023-07-29T12:30:11;5.13;;;2.40;;
68989;SDS011;56046;47.270;11.368;2023-07-29T12:32:44;5.00;;;2.37;;
68989;SDS011;56046;47.270;11.368;2023-07-29T12:35:09;4.15;;;2.30;;
68989;SDS011;56046;47.270;11.368;2023-07-29T12:37:35;4.75;;;2.85;;
68989;SDS011;56046;47.270;11.368;2023-07-29T12:40:00;4.63;;;2.63;;
68989;SDS011;56046;47.270;11.368;2023-07-29T12:42:25;4.17;;;2.53;;
68989;SDS011;56046;47.270;11.368;2023-07-29T12:44:50;5.37;;;2.40;;
68989;SDS011;56046;47.270;11.368;2023-07-29T12:47:16;3.53;;;2.23;;
68989;SDS011;56046;47.270;11.368;2023-07-29T12:49:41;4.27;;;2.23;;
68989;SDS011;56046;47.270;11.368;2023-07-29T12:52:06;3.90;;;2.27;;
68989;SDS011;56046;47.270;11.368;2023-07-29T12:54:31;4.10;;;2.53;;
68989;SDS011;56046;47.270;11.368;2023-07-29T12:56:57;4.33;;;2.23;;
68989;SDS011;56046;47.270;11.368;2023-07-29T12:59:22;3.90;;;2.20;;
68989;SDS011;56046;47.270;11.368;2023-07-29T13:01:47;5.33;;;2.13;;
68989;SDS011;56046;47.270;11.368;2023-07-29T13:04:13;5.43;;;2.73;;
68989;SDS011;56046;47.270;11.368;2023-07-29T13:06:38;4.40;;;2.13;;
68989;SDS011;56046;47.270;11.368;2023-07-29T13:09:03;4.10;;;2.60;;
68989;SDS011;56046;47.270;11.368;2023-07-29T13:11:30;3.50;;;2.00;;
68989;SDS011;56046;47.270;11.368;2023-07-29T13:13:57;4.20;;;2.70;;
68989;SDS011;56046;47.270;11.368;2023-07-29T13:16:22;4.37;;;2.37;;
68989;SDS011;56046;47.270;11.368;2023-07-29T13:18:47;3.70;;;1.80;;
68989;SDS011;56046;47.270;11.368;2023-07-29T13:21:13;5.33;;;2.00;;
68989;SDS011;56046;47.270;11.368;2023-07-29T13:23:38;4.40;;;2.20;;
68989;SDS011;56046;47.270;11.368;2023-07-29T13:26:03;3.53;;;2.17;;
68989;SDS011;56046;47.270;11.368;2023-07-29T13:28:28;3.70;;;1.90;;
68989;SDS011;56046;47.270;11.368;2023-07-29T13:30:54;3.47;;;1.63;;
68989;SDS011;56046;47.270;11.368;2023-07-29T13:33:19;4.30;;;2.50;;
68989;SDS011;56046;47.270;11.368;2023-07-29T13:35:44;4.83;;;2.50;;
68989;SDS011;56046;47.270;11.368;2023-07-29T13:38:10;3.40;;;1.87;;
68989;SDS011;56046;47.270;11.368;2023-07-29T13:40:36;4.20;;;1.88;;
68989;SDS011;56046;47.270;11.368;2023-07-29T13:43:01;3.60;;;2.05;;
68989;SDS011;56046;47.270;11.368;2023-07-29T13:45:26;4.23;;;2.07;;
68989;SDS011;56046;47.270;11.368;2023-07-29T13:47:52;4.00;;;2.43;;
68989;SDS011;56046;47.270;11.368;2023-07-29T13:50:17;4.37;;;2.53;;
68989;SDS011;56046;47.270;11.368;2023-07-29T13:52:43;4.20;;;2.00;;
68989;SDS011;56046;47.270;11.368;2023-07-29T13:55:08;5.63;;;2.30;;
68989;SDS011;56046;47.270;11.368;2023-07-29T13:57:33;4.10;;;2.17;;
68989;SDS011;56046;47.270;11.368;2023-07-29T13:59:59;5.20;;;2.10;;
68989;SDS011;56046;47.270;11.368;2023-07-29T14:02:24;3.97;;;2.30;;
68989;SDS011;56046;47.270;11.368;2023-07-29T14:04:52;4.68;;;2.22;;
68989;SDS011;56046;47.270;11.368;2023-07-29T14:07:18;4.23;;;2.17;;
68989;SDS011;56046;47.270;11.368;2023-07-29T14:09:43;5.30;;;1.93;;
68989;SDS011;56046;47.270;11.368;2023-07-29T14:12:08;4.43;;;2.30;;
68989;SDS011;56046;47.270;11.368;2023-07-29T14:14:37;6.10;;;2.35;;
68989;SDS011;56046;47.270;11.368;2023-07-29T14:17:02;4.50;;;2.33;;
68989;SDS011;56046;47.270;11.368;2023-07-29T14:19:28;4.20;;;1.92;;
68989;SDS011;56046;47.270;11.368;2023-07-29T14:21:53;4.00;;;2.30;;
68989;SDS011;56046;47.270;11.368;2023-07-29T14:24:18;4.83;;;2.30;;
68989;SDS011;56046;47.270;11.368;2023-07-29T14:26:45;6.05;;;2.60;;
68989;SDS011;56046;47.270;11.368;2023-07-29T14:29:10;5.33;;;2.03;;
68989;SDS011;56046;47.270;11.368;2023-07-29T14:31:35;5.30;;;2.50;;
68989;SDS011;56046;47.270;11.368;2023-07-29T14:34:00;6.03;;;2.30;;
68989;SDS011;56046;47.270;11.368;2023-07-29T14:36:26;3.53;;;2.37;;
68989;SDS011;56046;47.270;11.368;2023-07-29T14:38:51;5.70;;;2.30;;
68989;SDS011;56046;47.270;11.368;2023-07-29T14:41:16;4.83;;;2.17;;
68989;SDS011;56046;47.270;11.368;2023-07-29T14:43:41;3.93;;;2.23;;
68989;SDS011;56046;47.270;11.368;2023-07-29T14:46:07;3.80;;;2.43;;